sensor_id;sensor_type;location;lat;lon;timestamp;P1;durP1;ratioP1;P2;durP2;ratioP2
1471;SDS011;963;42.644;23.336;2023-04-24T00:00:45;11.13;;;8.20;;
1471;SDS011;963;42.644;23.336;2023-04-24T00:03:11;11.20;;;8.03;;
1471;SDS011;963;42.644;23.336;2023-04-24T00:05:38;12.27;;;7.80;;
1471;SDS011;963;42.644;23.336;2023-04-24T00:08:05;9.93;;;7.43;;
1471;SDS011;963;42.644;23.336;2023-04-24T00:10:31;11.97;;;8.90;;
1471;SDS011;963;42.644;23.336;2023-04-24T00:12:56;10.63;;;7.70;;
1471;SDS011;963;42.644;23.336;2023-04-24T00:15:22;9.20;;;7.70;;
1471;SDS011;963;42.644;23.336;2023-04-24T00:17:47;11.07;;;7.80;;
1471;SDS011;963;42.644;23.336;2023-04-24T00:20:13;9.10;;;7.60;;
1471;SDS011;963;42.644;23.336;2023-04-24T00:22:39;9.80;;;8.00;;
1471;SDS011;963;42.644;23.336;2023-04-24T00:25:05;9.30;;;8.30;;
1471;SDS011;963;42.644;23.336;2023-04-24T00:27:31;9.70;;;8.70;;
1471;SDS011;963;42.644;23.336;2023-04-24T00:29:56;9.47;;;8.47;;
1471;SDS011;963;42.644;23.336;2023-04-24T00:32:22;11.53;;;8.80;;
1471;SDS011;963;42.644;23.336;2023-04-24T00:34:47;14.70;;;8.93;;
1471;SDS011;963;42.644;23.336;2023-04-24T00:37:12;11.60;;;8.70;;
1471;SDS011;963;42.644;23.336;2023-04-24T00:39:38;9.23;;;7.50;;
1471;SDS011;963;42.644;23.336;2023-04-24T00:42:04;10.00;;;8.93;;
1471;SDS011;963;42.644;23.336;2023-04-24T00:44:31;13.07;;;9.50;;
1471;SDS011;963;42.644;23.336;2023-04-24T00:46:58;10.73;;;8.90;;
1471;SDS011;963;42.644;23.336;2023-04-24T00:49:24;14.33;;;8.47;;
1471;SDS011;963;42.644;23.336;2023-04-24T00:51:49;9.70;;;8.70;;
1471;SDS011;963;42.644;23.336;2023-04-24T00:54:16;12.53;;;9.57;;
1471;SDS011;963;42.644;23.336;2023-04-24T00:56:42;13.13;;;9.87;;
1471;SDS011;963;42.644;23.336;2023-04-24T00:59:09;13.70;;;9.20;;
1471;SDS011;963;42.644;23.336;2023-04-24T01:01:34;15.03;;;10.20;;
1471;SDS011;963;42.644;23.336;2023-04-24T01:04:00;13.43;;;10.13;;
1471;SDS011;963;42.644;23.336;2023-04-24T01:06:27;12.57;;;9.60;;
1471;SDS011;963;42.644;23.336;2023-04-24T01:08:56;13.97;;;9.73;;
1471;SDS011;963;42.644;23.336;2023-04-24T01:11:22;13.13;;;9.87;;
1471;SDS011;963;42.644;23.336;2023-04-24T01:13:47;16.80;;;11.20;;
1471;SDS011;963;42.644;23.336;2023-04-24T01:16:13;10.33;;;9.33;;
1471;SDS011;963;42.644;23.336;2023-04-24T01:18:42;11.27;;;9.87;;
1471;SDS011;963;42.644;23.336;2023-04-24T01:21:08;12.10;;;8.90;;
1471;SDS011;963;42.644;23.336;2023-04-24T01:23:34;12.20;;;9.50;;
1471;SDS011;963;42.644;23.336;2023-04-24T01:26:00;12.30;;;9.50;;
1471;SDS011;963;42.644;23.336;2023-04-24T01:28:25;13.00;;;10.57;;
1471;SDS011;963;42.644;23.336;2023-04-24T01:30:51;10.40;;;9.30;;
1471;SDS011;963;42.644;23.336;2023-04-24T01:33:17;9.10;;;8.20;;
1471;SDS011;963;42.644;23.336;2023-04-24T01:35:43;11.10;;;8.57;;
1471;SDS011;963;42.644;23.336;2023-04-24T01:38:08;11.70;;;7.80;;
1471;SDS011;963;42.644;23.336;2023-04-24T01:40:34;9.30;;;7.37;;
1471;SDS011;963;42.644;23.336;2023-04-24T01:43:00;8.93;;;7.63;;
1471;SDS011;963;42.644;23.336;2023-04-24T01:45:25;8.70;;;7.27;;
1471;SDS011;963;42.644;23.336;2023-04-24T01:47:51;12.43;;;7.40;;
1471;SDS011;963;42.644;23.336;2023-04-24T01:50:17;11.47;;;7.37;;
1471;SDS011;963;42.644;23.336;2023-04-24T01:52:43;9.93;;;6.83;;
1471;SDS011;963;42.644;23.336;2023-04-24T01:55:09;9.60;;;6.87;;
1471;SDS011;963;42.644;23.336;2023-04-24T01:57:35;11.60;;;9.23;;
1471;SDS011;963;42.644;23.336;2023-04-24T02:00:01;12.47;;;8.40;;
1471;SDS011;963;42.644;23.336;2023-04-24T02:02:29;11.27;;;8.80;;
1471;SDS011;963;42.644;23.336;2023-04-24T02:04:55;11.00;;;7.93;;
1471;SDS011;963;42.644;23.336;2023-04-24T02:07:20;12.33;;;9.00;;
1471;SDS011;963;42.644;23.336;2023-04-24T02:09:47;12.70;;;9.00;;
1471;SDS011;963;42.644;23.336;2023-04-24T02:12:13;10.00;;;9.03;;
1471;SDS011;963;42.644;23.336;2023-04-24T02:14:38;13.57;;;9.63;;
1471;SDS011;963;42.644;23.336;2023-04-24T02:17:04;12.13;;;10.03;;
1471;SDS011;963;42.644;23.336;2023-04-24T02:19:30;9.23;;;8.33;;
1471;SDS011;963;42.644;23.336;2023-04-24T02:21:55;11.77;;;9.20;;
1471;SDS011;963;42.644;23.336;2023-04-24T02:24:21;11.33;;;9.13;;
1471;SDS011;963;42.644;23.336;2023-04-24T02:26:46;13.33;;;10.07;;
1471;SDS011;963;42.644;23.336;2023-04-24T02:29:12;11.53;;;10.07;;
1471;SDS011;963;42.644;23.336;2023-04-24T02:31:37;15.30;;;10.10;;
1471;SDS011;963;42.644;23.336;2023-04-24T02:34:02;11.80;;;9.13;;
1471;SDS011;963;42.644;23.336;2023-04-24T02:36:28;11.60;;;9.63;;
1471;SDS011;963;42.644;23.336;2023-04-24T02:38:53;10.40;;;9.17;;
1471;SDS011;963;42.644;23.336;2023-04-24T02:41:19;11.20;;;10.00;;
1471;SDS011;963;42.644;23.336;2023-04-24T02:43:44;13.97;;;9.40;;
1471;SDS011;963;42.644;23.336;2023-04-24T02:46:10;10.43;;;8.67;;
1471;SDS011;963;42.644;23.336;2023-04-24T02:48:36;11.47;;;9.40;;
1471;SDS011;963;42.644;23.336;2023-04-24T02:51:01;10.30;;;8.60;;
1471;SDS011;963;42.644;23.336;2023-04-24T02:53:26;12.73;;;8.67;;
1471;SDS011;963;42.644;23.336;2023-04-24T02:55:52;10.70;;;8.63;;
1471;SDS011;963;42.644;23.336;2023-04-24T02:58:17;10.30;;;8.70;;
1471;SDS011;963;42.644;23.336;2023-04-24T03:00:45;14.30;;;10.10;;
1471;SDS011;963;42.644;23.336;2023-04-24T03:03:11;11.30;;;9.60;;
1471;SDS011;963;42.644;23.336;2023-04-24T03:05:37;11.53;;;9.53;;
1471;SDS011;963;42.644;23.336;2023-04-24T03:08:02;12.33;;;9.50;;
1471;SDS011;963;42.644;23.336;2023-04-24T03:10:27;13.80;;;11.53;;
1471;SDS011;963;42.644;23.336;2023-04-24T03:12:53;12.10;;;9.13;;
1471;SDS011;963;42.644;23.336;2023-04-24T03:15:19;11.60;;;10.07;;
1471;SDS011;963;42.644;23.336;2023-04-24T03:17:45;10.67;;;8.93;;
1471;SDS011;963;42.644;23.336;2023-04-24T03:20:10;13.20;;;10.43;;
1471;SDS011;963;42.644;23.336;2023-04-24T03:22:36;11.30;;;10.07;;
1471;SDS011;963;42.644;23.336;2023-04-24T03:25:02;10.60;;;9.50;;
1471;SDS011;963;42.644;23.336;2023-04-24T03:27:27;11.83;;;9.00;;
1471;SDS011;963;42.644;23.336;2023-04-24T03:29:53;11.33;;;9.33;;
1471;SDS011;963;42.644;23.336;2023-04-24T03:32:21;10.97;;;9.77;;
1471;SDS011;963;42.644;23.336;2023-04-24T03:34:47;13.37;;;10.00;;
1471;SDS011;963;42.644;23.336;2023-04-24T03:37:16;10.40;;;9.03;;
1471;SDS011;963;42.644;23.336;2023-04-24T03:39:41;12.20;;;10.03;;
1471;SDS011;963;42.644;23.336;2023-04-24T03:42:07;13.90;;;10.00;;
1471;SDS011;963;42.644;23.336;2023-04-24T03:44:33;13.50;;;9.37;;
1471;SDS011;963;42.644;23.336;2023-04-24T03:46:59;11.10;;;9.23;;
1471;SDS011;963;42.644;23.336;2023-04-24T03:49:25;11.43;;;9.33;;
1471;SDS011;963;42.644;23.336;2023-04-24T03:51:50;13.87;;;9.00;;
1471;SDS011;963;42.644;23.336;2023-04-24T03:54:17;11.20;;;8.77;;
1471;SDS011;963;42.644;23.336;2023-04-24T03:56:43;9.90;;;9.00;;
1471;SDS011;963;42.644;23.336;2023-04-24T03:59:08;11.70;;;9.00;;
1471;SDS011;963;42.644;23.336;2023-04-24T04:01:33;10.97;;;9.60;;
1471;SDS011;963;42.644;23.336;2023-04-24T04:04:02;9.67;;;8.57;;
1471;SDS011;963;42.644;23.336;2023-04-24T04:06:28;11.20;;;8.97;;
1471;SDS011;963;42.644;23.336;2023-04-24T04:08:55;11.63;;;7.87;;
1471;SDS011;963;42.644;23.336;2023-04-24T04:11:21;13.30;;;8.90;;
1471;SDS011;963;42.644;23.336;2023-04-24T04:13:46;10.47;;;9.33;;
1471;SDS011;963;42.644;23.336;2023-04-24T04:16:13;9.50;;;8.40;;
1471;SDS011;963;42.644;23.336;2023-04-24T04:18:38;14.43;;;8.50;;
1471;SDS011;963;42.644;23.336;2023-04-24T04:21:04;13.23;;;8.37;;
1471;SDS011;963;42.644;23.336;2023-04-24T04:23:29;9.90;;;7.97;;
1471;SDS011;963;42.644;23.336;2023-04-24T04:25:55;12.30;;;8.33;;
1471;SDS011;963;42.644;23.336;2023-04-24T04:28:20;11.80;;;8.40;;
1471;SDS011;963;42.644;23.336;2023-04-24T04:30:46;10.73;;;8.90;;
1471;SDS011;963;42.644;23.336;2023-04-24T04:33:12;11.37;;;8.67;;
1471;SDS011;963;42.644;23.336;2023-04-24T04:35:38;16.73;;;9.00;;
1471;SDS011;963;42.644;23.336;2023-04-24T04:38:03;11.53;;;9.00;;
1471;SDS011;963;42.644;23.336;2023-04-24T04:40:29;11.90;;;8.73;;
1471;SDS011;963;42.644;23.336;2023-04-24T04:42:55;15.10;;;9.00;;
1471;SDS011;963;42.644;23.336;2023-04-24T04:45:20;15.90;;;9.00;;
1471;SDS011;963;42.644;23.336;2023-04-24T04:47:46;13.87;;;9.60;;
1471;SDS011;963;42.644;23.336;2023-04-24T04:50:12;13.20;;;9.73;;
1471;SDS011;963;42.644;23.336;2023-04-24T04:52:38;12.00;;;9.20;;
1471;SDS011;963;42.644;23.336;2023-04-24T04:55:04;10.90;;;9.67;;
1471;SDS011;963;42.644;23.336;2023-04-24T04:57:30;17.03;;;9.27;;
1471;SDS011;963;42.644;23.336;2023-04-24T04:59:56;12.53;;;9.10;;
1471;SDS011;963;42.644;23.336;2023-04-24T05:02:21;11.70;;;9.30;;
1471;SDS011;963;42.644;23.336;2023-04-24T05:04:46;9.97;;;8.77;;
1471;SDS011;963;42.644;23.336;2023-04-24T05:07:12;11.70;;;9.10;;
1471;SDS011;963;42.644;23.336;2023-04-24T05:09:37;13.70;;;9.20;;
1471;SDS011;963;42.644;23.336;2023-04-24T05:12:03;13.80;;;9.87;;
1471;SDS011;963;42.644;23.336;2023-04-24T05:14:28;16.43;;;9.73;;
1471;SDS011;963;42.644;23.336;2023-04-24T05:16:54;14.70;;;9.77;;
1471;SDS011;963;42.644;23.336;2023-04-24T05:19:19;14.63;;;10.80;;
1471;SDS011;963;42.644;23.336;2023-04-24T05:21:45;14.43;;;9.53;;
1471;SDS011;963;42.644;23.336;2023-04-24T05:24:10;12.23;;;8.80;;
1471;SDS011;963;42.644;23.336;2023-04-24T05:26:36;19.67;;;9.70;;
1471;SDS011;963;42.644;23.336;2023-04-24T05:29:01;9.97;;;8.57;;
1471;SDS011;963;42.644;23.336;2023-04-24T05:31:27;12.67;;;8.97;;
1471;SDS011;963;42.644;23.336;2023-04-24T05:33:53;11.07;;;7.20;;
1471;SDS011;963;42.644;23.336;2023-04-24T05:36:18;10.30;;;7.97;;
1471;SDS011;963;42.644;23.336;2023-04-24T05:38:43;11.67;;;8.50;;
1471;SDS011;963;42.644;23.336;2023-04-24T05:41:09;15.67;;;9.33;;
1471;SDS011;963;42.644;23.336;2023-04-24T05:43:34;15.60;;;8.03;;
1471;SDS011;963;42.644;23.336;2023-04-24T05:46:00;14.10;;;8.17;;
1471;SDS011;963;42.644;23.336;2023-04-24T05:48:25;7.80;;;6.90;;
1471;SDS011;963;42.644;23.336;2023-04-24T05:50:51;12.80;;;7.87;;
1471;SDS011;963;42.644;23.336;2023-04-24T05:53:17;13.23;;;8.27;;
1471;SDS011;963;42.644;23.336;2023-04-24T05:55:43;14.37;;;8.60;;
1471;SDS011;963;42.644;23.336;2023-04-24T05:58:09;11.87;;;7.97;;
1471;SDS011;963;42.644;23.336;2023-04-24T06:00:34;10.37;;;7.90;;
1471;SDS011;963;42.644;23.336;2023-04-24T06:03:00;10.13;;;7.30;;
1471;SDS011;963;42.644;23.336;2023-04-24T06:05:26;15.50;;;9.93;;
1471;SDS011;963;42.644;23.336;2023-04-24T06:07:51;10.57;;;8.63;;
1471;SDS011;963;42.644;23.336;2023-04-24T06:10:17;9.67;;;8.20;;
1471;SDS011;963;42.644;23.336;2023-04-24T06:12:42;14.80;;;8.30;;
1471;SDS011;963;42.644;23.336;2023-04-24T06:15:08;12.93;;;8.53;;
1471;SDS011;963;42.644;23.336;2023-04-24T06:17:33;11.93;;;8.70;;
1471;SDS011;963;42.644;23.336;2023-04-24T06:19:59;10.10;;;8.00;;
1471;SDS011;963;42.644;23.336;2023-04-24T06:22:24;10.33;;;8.40;;
1471;SDS011;963;42.644;23.336;2023-04-24T06:24:50;12.20;;;9.60;;
1471;SDS011;963;42.644;23.336;2023-04-24T06:27:15;12.73;;;8.80;;
1471;SDS011;963;42.644;23.336;2023-04-24T06:29:40;10.40;;;8.80;;
1471;SDS011;963;42.644;23.336;2023-04-24T06:32:06;11.30;;;8.63;;
1471;SDS011;963;42.644;23.336;2023-04-24T06:34:31;11.80;;;8.47;;
1471;SDS011;963;42.644;23.336;2023-04-24T06:36:58;10.73;;;8.20;;
1471;SDS011;963;42.644;23.336;2023-04-24T06:39:24;10.10;;;8.70;;
1471;SDS011;963;42.644;23.336;2023-04-24T06:41:50;11.77;;;8.40;;
1471;SDS011;963;42.644;23.336;2023-04-24T06:44:15;12.90;;;9.03;;
1471;SDS011;963;42.644;23.336;2023-04-24T06:46:41;10.87;;;8.00;;
1471;SDS011;963;42.644;23.336;2023-04-24T06:49:07;11.73;;;9.13;;
1471;SDS011;963;42.644;23.336;2023-04-24T06:51:32;16.00;;;9.20;;
1471;SDS011;963;42.644;23.336;2023-04-24T06:53:58;15.40;;;8.83;;
1471;SDS011;963;42.644;23.336;2023-04-24T06:56:24;11.80;;;7.27;;
1471;SDS011;963;42.644;23.336;2023-04-24T06:58:50;14.67;;;7.73;;
1471;SDS011;963;42.644;23.336;2023-04-24T07:01:16;13.10;;;8.40;;
1471;SDS011;963;42.644;23.336;2023-04-24T07:03:42;8.73;;;7.50;;
1471;SDS011;963;42.644;23.336;2023-04-24T07:06:07;10.43;;;8.37;;
1471;SDS011;963;42.644;23.336;2023-04-24T07:08:34;11.43;;;8.60;;
1471;SDS011;963;42.644;23.336;2023-04-24T07:11:00;12.27;;;8.67;;
1471;SDS011;963;42.644;23.336;2023-04-24T07:13:26;14.57;;;9.00;;
1471;SDS011;963;42.644;23.336;2023-04-24T07:15:51;12.87;;;7.60;;
1471;SDS011;963;42.644;23.336;2023-04-24T07:18:20;12.93;;;8.47;;
1471;SDS011;963;42.644;23.336;2023-04-24T07:20:45;9.37;;;7.60;;
1471;SDS011;963;42.644;23.336;2023-04-24T07:23:11;12.20;;;7.93;;
1471;SDS011;963;42.644;23.336;2023-04-24T07:25:36;9.47;;;7.87;;
1471;SDS011;963;42.644;23.336;2023-04-24T07:28:03;10.20;;;8.50;;
1471;SDS011;963;42.644;23.336;2023-04-24T07:30:29;11.97;;;8.67;;
1471;SDS011;963;42.644;23.336;2023-04-24T07:32:55;10.10;;;7.40;;
1471;SDS011;963;42.644;23.336;2023-04-24T07:35:21;9.60;;;8.30;;
1471;SDS011;963;42.644;23.336;2023-04-24T07:37:46;11.80;;;8.60;;
1471;SDS011;963;42.644;23.336;2023-04-24T07:40:12;11.00;;;8.47;;
1471;SDS011;963;42.644;23.336;2023-04-24T07:42:38;11.60;;;7.77;;
1471;SDS011;963;42.644;23.336;2023-04-24T07:45:04;13.67;;;7.83;;
1471;SDS011;963;42.644;23.336;2023-04-24T07:47:30;9.50;;;7.10;;
1471;SDS011;963;42.644;23.336;2023-04-24T07:49:56;9.80;;;7.90;;
1471;SDS011;963;42.644;23.336;2023-04-24T07:52:22;9.50;;;7.13;;
1471;SDS011;963;42.644;23.336;2023-04-24T07:54:47;11.47;;;7.33;;
1471;SDS011;963;42.644;23.336;2023-04-24T07:57:12;8.43;;;7.13;;
1471;SDS011;963;42.644;23.336;2023-04-24T07:59:38;8.00;;;7.10;;
1471;SDS011;963;42.644;23.336;2023-04-24T08:02:04;8.40;;;7.50;;
1471;SDS011;963;42.644;23.336;2023-04-24T08:04:31;11.20;;;8.67;;
1471;SDS011;963;42.644;23.336;2023-04-24T08:06:56;10.50;;;8.10;;
1471;SDS011;963;42.644;23.336;2023-04-24T08:09:22;10.47;;;8.20;;
1471;SDS011;963;42.644;23.336;2023-04-24T08:11:47;10.53;;;8.67;;
1471;SDS011;963;42.644;23.336;2023-04-24T08:14:13;15.77;;;9.00;;
1471;SDS011;963;42.644;23.336;2023-04-24T08:16:39;11.13;;;8.70;;
1471;SDS011;963;42.644;23.336;2023-04-24T08:19:05;12.60;;;8.10;;
1471;SDS011;963;42.644;23.336;2023-04-24T08:21:30;13.83;;;8.50;;
1471;SDS011;963;42.644;23.336;2023-04-24T08:23:56;12.73;;;7.90;;
1471;SDS011;963;42.644;23.336;2023-04-24T08:26:22;10.10;;;7.80;;
1471;SDS011;963;42.644;23.336;2023-04-24T08:28:47;12.03;;;10.57;;
1471;SDS011;963;42.644;23.336;2023-04-24T08:31:13;13.60;;;8.90;;
1471;SDS011;963;42.644;23.336;2023-04-24T08:33:38;7.87;;;7.07;;
1471;SDS011;963;42.644;23.336;2023-04-24T08:36:05;9.63;;;7.53;;
1471;SDS011;963;42.644;23.336;2023-04-24T08:38:32;10.83;;;7.90;;
1471;SDS011;963;42.644;23.336;2023-04-24T08:40:58;10.60;;;8.87;;
1471;SDS011;963;42.644;23.336;2023-04-24T08:43:24;9.23;;;8.10;;
1471;SDS011;963;42.644;23.336;2023-04-24T08:45:51;10.27;;;8.37;;
1471;SDS011;963;42.644;23.336;2023-04-24T08:48:17;15.63;;;8.20;;
1471;SDS011;963;42.644;23.336;2023-04-24T08:50:43;11.53;;;7.30;;
1471;SDS011;963;42.644;23.336;2023-04-24T08:53:09;13.50;;;8.30;;
1471;SDS011;963;42.644;23.336;2023-04-24T08:55:36;9.40;;;8.07;;
1471;SDS011;963;42.644;23.336;2023-04-24T08:58:02;11.47;;;7.83;;
1471;SDS011;963;42.644;23.336;2023-04-24T09:00:29;11.20;;;8.03;;
1471;SDS011;963;42.644;23.336;2023-04-24T09:02:55;9.30;;;7.50;;
1471;SDS011;963;42.644;23.336;2023-04-24T09:05:21;9.00;;;7.93;;
1471;SDS011;963;42.644;23.336;2023-04-24T09:07:57;8.70;;;7.80;;
1471;SDS011;963;42.644;23.336;2023-04-24T09:10:26;11.67;;;8.23;;
1471;SDS011;963;42.644;23.336;2023-04-24T09:12:53;13.53;;;7.90;;
1471;SDS011;963;42.644;23.336;2023-04-24T09:15:20;11.93;;;7.73;;
1471;SDS011;963;42.644;23.336;2023-04-24T09:17:45;10.23;;;6.87;;
1471;SDS011;963;42.644;23.336;2023-04-24T09:20:11;12.60;;;7.70;;
1471;SDS011;963;42.644;23.336;2023-04-24T09:22:37;13.20;;;7.40;;
1471;SDS011;963;42.644;23.336;2023-04-24T09:25:03;11.63;;;7.70;;
1471;SDS011;963;42.644;23.336;2023-04-24T09:27:31;11.37;;;7.40;;
1471;SDS011;963;42.644;23.336;2023-04-24T09:29:57;8.17;;;6.43;;
1471;SDS011;963;42.644;23.336;2023-04-24T09:32:23;15.93;;;7.50;;
1471;SDS011;963;42.644;23.336;2023-04-24T09:35:04;8.10;;;6.13;;
1471;SDS011;963;42.644;23.336;2023-04-24T09:37:45;8.67;;;6.57;;
1471;SDS011;963;42.644;23.336;2023-04-24T09:42:43;10.97;;;7.40;;
1471;SDS011;963;42.644;23.336;2023-04-24T09:45:10;10.93;;;6.97;;
1471;SDS011;963;42.644;23.336;2023-04-24T09:47:37;11.90;;;5.93;;
1471;SDS011;963;42.644;23.336;2023-04-24T09:50:09;11.03;;;6.03;;
1471;SDS011;963;42.644;23.336;2023-04-24T09:52:39;8.70;;;6.20;;
1471;SDS011;963;42.644;23.336;2023-04-24T09:55:10;7.63;;;6.73;;
1471;SDS011;963;42.644;23.336;2023-04-24T09:57:40;7.13;;;6.43;;
1471;SDS011;963;42.644;23.336;2023-04-24T10:00:12;11.50;;;6.80;;
1471;SDS011;963;42.644;23.336;2023-04-24T10:02:38;10.90;;;6.20;;
1471;SDS011;963;42.644;23.336;2023-04-24T10:05:04;8.83;;;6.00;;
1471;SDS011;963;42.644;23.336;2023-04-24T10:07:32;7.43;;;6.13;;
1471;SDS011;963;42.644;23.336;2023-04-24T10:09:58;8.13;;;6.70;;
1471;SDS011;963;42.644;23.336;2023-04-24T10:12:24;11.13;;;8.10;;
1471;SDS011;963;42.644;23.336;2023-04-24T10:14:50;8.97;;;6.60;;
1471;SDS011;963;42.644;23.336;2023-04-24T10:17:16;6.70;;;6.00;;
1471;SDS011;963;42.644;23.336;2023-04-24T10:19:42;7.80;;;6.37;;
1471;SDS011;963;42.644;23.336;2023-04-24T10:22:08;7.20;;;5.70;;
1471;SDS011;963;42.644;23.336;2023-04-24T10:24:34;8.10;;;6.30;;
1471;SDS011;963;42.644;23.336;2023-04-24T10:27:02;16.20;;;6.37;;
1471;SDS011;963;42.644;23.336;2023-04-24T10:29:28;6.30;;;5.60;;
1471;SDS011;963;42.644;23.336;2023-04-24T10:31:56;5.87;;;4.93;;
1471;SDS011;963;42.644;23.336;2023-04-24T10:34:22;10.43;;;5.63;;
1471;SDS011;963;42.644;23.336;2023-04-24T10:36:50;7.03;;;4.90;;
1471;SDS011;963;42.644;23.336;2023-04-24T10:39:17;6.63;;;5.07;;
1471;SDS011;963;42.644;23.336;2023-04-24T10:41:44;6.70;;;4.73;;
1471;SDS011;963;42.644;23.336;2023-04-24T10:44:14;7.97;;;4.70;;
1471;SDS011;963;42.644;23.336;2023-04-24T10:46:44;8.93;;;5.30;;
1471;SDS011;963;42.644;23.336;2023-04-24T10:49:11;10.10;;;5.37;;
1471;SDS011;963;42.644;23.336;2023-04-24T10:51:46;12.27;;;5.67;;
1471;SDS011;963;42.644;23.336;2023-04-24T10:56:55;4.90;;;4.30;;
1471;SDS011;963;42.644;23.336;2023-04-24T10:59:44;7.03;;;4.80;;
1471;SDS011;963;42.644;23.336;2023-04-24T11:02:11;8.03;;;4.70;;
1471;SDS011;963;42.644;23.336;2023-04-24T11:04:40;5.70;;;4.87;;
1471;SDS011;963;42.644;23.336;2023-04-24T11:07:08;9.70;;;5.00;;
1471;SDS011;963;42.644;23.336;2023-04-24T11:09:34;8.93;;;5.60;;
1471;SDS011;963;42.644;23.336;2023-04-24T11:17:36;5.83;;;4.00;;
1471;SDS011;963;42.644;23.336;2023-04-24T11:20:16;8.97;;;4.40;;
1471;SDS011;963;42.644;23.336;2023-04-24T11:22:42;11.27;;;5.50;;
1471;SDS011;963;42.644;23.336;2023-04-24T11:25:08;10.60;;;5.20;;
1471;SDS011;963;42.644;23.336;2023-04-24T11:27:43;7.60;;;5.43;;
1471;SDS011;963;42.644;23.336;2023-04-24T11:30:10;6.03;;;4.90;;
1471;SDS011;963;42.644;23.336;2023-04-24T11:32:37;9.60;;;4.70;;
1471;SDS011;963;42.644;23.336;2023-04-24T11:35:05;6.57;;;3.43;;
1471;SDS011;963;42.644;23.336;2023-04-24T11:40:08;5.03;;;3.13;;
1471;SDS011;963;42.644;23.336;2023-04-24T11:42:39;5.20;;;3.30;;
1471;SDS011;963;42.644;23.336;2023-04-24T11:45:09;7.23;;;2.67;;
1471;SDS011;963;42.644;23.336;2023-04-24T11:47:35;4.50;;;4.10;;
1471;SDS011;963;42.644;23.336;2023-04-24T11:50:01;5.80;;;4.77;;
1471;SDS011;963;42.644;23.336;2023-04-24T11:52:28;7.30;;;5.70;;
1471;SDS011;963;42.644;23.336;2023-04-24T11:54:55;5.90;;;5.30;;
1471;SDS011;963;42.644;23.336;2023-04-24T11:57:21;6.80;;;5.70;;
1471;SDS011;963;42.644;23.336;2023-04-24T11:59:48;5.13;;;4.73;;
1471;SDS011;963;42.644;23.336;2023-04-24T12:02:21;7.60;;;5.37;;
1471;SDS011;963;42.644;23.336;2023-04-24T12:04:50;8.00;;;5.10;;
1471;SDS011;963;42.644;23.336;2023-04-24T12:07:19;6.83;;;5.33;;
1471;SDS011;963;42.644;23.336;2023-04-24T12:09:56;6.97;;;5.33;;
1471;SDS011;963;42.644;23.336;2023-04-24T12:12:24;9.43;;;6.30;;
1471;SDS011;963;42.644;23.336;2023-04-24T12:14:53;9.60;;;5.30;;
1471;SDS011;963;42.644;23.336;2023-04-24T12:17:26;5.70;;;5.10;;
1471;SDS011;963;42.644;23.336;2023-04-24T12:20:03;5.27;;;4.60;;
1471;SDS011;963;42.644;23.336;2023-04-24T12:25:31;7.73;;;3.50;;
1471;SDS011;963;42.644;23.336;2023-04-24T12:30:30;6.20;;;4.13;;
1471;SDS011;963;42.644;23.336;2023-04-24T12:32:58;4.70;;;4.07;;
1471;SDS011;963;42.644;23.336;2023-04-24T12:35:26;5.67;;;3.87;;
1471;SDS011;963;42.644;23.336;2023-04-24T12:37:53;5.23;;;3.97;;
1471;SDS011;963;42.644;23.336;2023-04-24T12:40:19;4.83;;;4.43;;
1471;SDS011;963;42.644;23.336;2023-04-24T12:42:50;5.33;;;4.60;;
1471;SDS011;963;42.644;23.336;2023-04-24T12:45:18;5.40;;;4.90;;
1471;SDS011;963;42.644;23.336;2023-04-24T12:47:45;5.57;;;4.53;;
1471;SDS011;963;42.644;23.336;2023-04-24T12:50:14;6.37;;;5.10;;
1471;SDS011;963;42.644;23.336;2023-04-24T12:52:40;15.37;;;12.00;;
1471;SDS011;963;42.644;23.336;2023-04-24T12:55:06;36.97;;;27.37;;
1471;SDS011;963;42.644;23.336;2023-04-24T12:57:33;5.57;;;5.00;;
1471;SDS011;963;42.644;23.336;2023-04-24T12:59:59;8.97;;;5.00;;
1471;SDS011;963;42.644;23.336;2023-04-24T13:02:26;5.93;;;5.33;;
1471;SDS011;963;42.644;23.336;2023-04-24T13:04:54;6.87;;;5.00;;
1471;SDS011;963;42.644;23.336;2023-04-24T13:07:20;7.70;;;5.20;;
1471;SDS011;963;42.644;23.336;2023-04-24T13:09:45;7.17;;;4.40;;
1471;SDS011;963;42.644;23.336;2023-04-24T13:12:12;5.37;;;4.87;;
1471;SDS011;963;42.644;23.336;2023-04-24T13:14:37;6.03;;;5.40;;
1471;SDS011;963;42.644;23.336;2023-04-24T13:17:03;11.37;;;5.63;;
1471;SDS011;963;42.644;23.336;2023-04-24T13:19:29;8.10;;;5.50;;
1471;SDS011;963;42.644;23.336;2023-04-24T13:22:00;6.87;;;5.20;;
1471;SDS011;963;42.644;23.336;2023-04-24T13:24:26;8.40;;;5.40;;
1471;SDS011;963;42.644;23.336;2023-04-24T13:26:51;5.03;;;4.63;;
1471;SDS011;963;42.644;23.336;2023-04-24T13:29:18;9.40;;;5.67;;
1471;SDS011;963;42.644;23.336;2023-04-24T13:31:43;10.33;;;5.80;;
1471;SDS011;963;42.644;23.336;2023-04-24T13:34:09;10.70;;;6.43;;
1471;SDS011;963;42.644;23.336;2023-04-24T13:36:35;5.80;;;4.80;;
1471;SDS011;963;42.644;23.336;2023-04-24T13:39:01;5.53;;;5.03;;
1471;SDS011;963;42.644;23.336;2023-04-24T13:41:29;7.17;;;5.30;;
1471;SDS011;963;42.644;23.336;2023-04-24T13:43:55;8.13;;;5.13;;
1471;SDS011;963;42.644;23.336;2023-04-24T13:46:21;6.80;;;4.77;;
1471;SDS011;963;42.644;23.336;2023-04-24T13:48:46;7.40;;;5.03;;
1471;SDS011;963;42.644;23.336;2023-04-24T13:51:11;8.67;;;4.70;;
1471;SDS011;963;42.644;23.336;2023-04-24T13:53:37;8.70;;;4.67;;
1471;SDS011;963;42.644;23.336;2023-04-24T13:56:03;4.60;;;4.20;;
1471;SDS011;963;42.644;23.336;2023-04-24T13:58:30;5.47;;;4.60;;
1471;SDS011;963;42.644;23.336;2023-04-24T14:00:56;5.70;;;5.10;;
1471;SDS011;963;42.644;23.336;2023-04-24T14:03:21;6.40;;;4.93;;
1471;SDS011;963;42.644;23.336;2023-04-24T14:05:46;5.60;;;5.10;;
1471;SDS011;963;42.644;23.336;2023-04-24T14:08:12;7.60;;;4.30;;
1471;SDS011;963;42.644;23.336;2023-04-24T14:10:37;4.70;;;4.30;;
1471;SDS011;963;42.644;23.336;2023-04-24T14:13:03;5.00;;;4.20;;
1471;SDS011;963;42.644;23.336;2023-04-24T14:15:28;5.27;;;4.60;;
1471;SDS011;963;42.644;23.336;2023-04-24T14:17:54;6.77;;;4.80;;
1471;SDS011;963;42.644;23.336;2023-04-24T14:20:19;6.33;;;5.20;;
1471;SDS011;963;42.644;23.336;2023-04-24T14:22:44;9.43;;;4.80;;
1471;SDS011;963;42.644;23.336;2023-04-24T14:25:10;15.17;;;5.20;;
1471;SDS011;963;42.644;23.336;2023-04-24T14:27:36;8.70;;;5.20;;
1471;SDS011;963;42.644;23.336;2023-04-24T14:30:01;5.47;;;4.53;;
1471;SDS011;963;42.644;23.336;2023-04-24T14:32:27;5.60;;;4.87;;
1471;SDS011;963;42.644;23.336;2023-04-24T14:34:53;5.70;;;4.23;;
1471;SDS011;963;42.644;23.336;2023-04-24T14:37:18;4.80;;;4.30;;
1471;SDS011;963;42.644;23.336;2023-04-24T14:39:44;6.23;;;4.47;;
1471;SDS011;963;42.644;23.336;2023-04-24T14:42:10;5.73;;;4.03;;
1471;SDS011;963;42.644;23.336;2023-04-24T14:44:35;4.63;;;3.87;;
1471;SDS011;963;42.644;23.336;2023-04-24T14:47:01;3.70;;;3.30;;
1471;SDS011;963;42.644;23.336;2023-04-24T14:49:26;4.60;;;3.50;;
1471;SDS011;963;42.644;23.336;2023-04-24T14:51:51;4.57;;;3.90;;
1471;SDS011;963;42.644;23.336;2023-04-24T14:54:17;5.53;;;4.30;;
1471;SDS011;963;42.644;23.336;2023-04-24T14:56:42;8.47;;;4.93;;
1471;SDS011;963;42.644;23.336;2023-04-24T14:59:09;5.50;;;4.90;;
1471;SDS011;963;42.644;23.336;2023-04-24T15:01:34;7.97;;;4.83;;
1471;SDS011;963;42.644;23.336;2023-04-24T15:04:00;7.50;;;5.20;;
1471;SDS011;963;42.644;23.336;2023-04-24T15:06:25;6.73;;;5.60;;
1471;SDS011;963;42.644;23.336;2023-04-24T15:08:51;6.00;;;5.03;;
1471;SDS011;963;42.644;23.336;2023-04-24T15:11:16;6.17;;;5.57;;
1471;SDS011;963;42.644;23.336;2023-04-24T15:13:42;7.20;;;5.53;;
1471;SDS011;963;42.644;23.336;2023-04-24T15:16:10;6.63;;;5.83;;
1471;SDS011;963;42.644;23.336;2023-04-24T15:18:35;7.57;;;5.33;;
1471;SDS011;963;42.644;23.336;2023-04-24T15:21:00;8.70;;;5.20;;